Latest Coastal Weather Observations for Orbost

IDV60701

Issued at 5:11 am EDT Friday 30 January 2015 (issued every 10 minutes, with the page automatically refreshed every 10 minutes)

About coastal observations | Map of coastal stations | Coastal observations for VIC | Marine services | Other Formats
Station Details ID: 084145 Name: ORBOST Lat: -37.69 Lon: 148.47 Height: 62.65 m
Data from the previous 72 hours. | See also: Recent months at Orbost
Date/Time
EDT
Temp

°C
Wind Pressure Rain
since 9am
mm
Weather Cloud Vis
km
Sea
Height
m
Swell
Dir
 
Speed
knots
Gust
knots
hPa Trend Height
m
Period
s
Dir
30/05:00am 15.3 SSW 9 16 1013.1 - 16.2 - - - - - - -
30/04:30am 15.1 SSW 8 13 1013.1 - 16.2 - - - - - - -
30/04:00am 15.1 SSW 9 17 1013.3 - 16.2 - - - - - - -
30/03:30am 15.0 SSW 9 14 1013.6 - 16.2 - - - - - - -
30/03:00am 14.8 SSW 8 13 1014.1 - 16.2 - - - - - - -
30/02:30am 14.6 SSW 9 16 1014.3 - 16.2 - - - - - - -
30/02:00am 13.9 SSW 8 13 1014.4 - 16.2 - - - - - - -
30/01:30am 13.3 SSW 10 18 1014.7 - 16.2 - - - - - - -
30/01:00am 15.4 SSW 7 14 1014.9 - 14.8 - - - - - - -
30/12:30am 15.3 SSW 9 15 1015.2 - 14.8 - - - - - - -
30/12:00am 15.5 SSW 8 13 1015.5 - 14.8 - - - - - - -
 
Date/Time
EDT
Temp

°C
Wind Pressure Rain
since 9am
mm
Weather Cloud Vis
km
Sea
Height
m
Swell
Dir
 
Speed
knots
Gust
knots
hPa Trend Height
m
Period
s
Dir
29/11:30pm 15.5 SSW 8 13 1015.9 - 14.8 - - - - - - -
29/11:00pm 15.5 SSW 7 12 1016.2 - 14.8 - - - - - - -
29/10:30pm 15.2 S 6 10 1016.4 - 14.8 - - - - - - -
29/10:00pm 15.4 SSW 6 11 1016.5 - 14.8 - - - - - - -
29/09:30pm 15.1 S 6 11 1016.5 - 14.8 - - - - - - -
29/09:00pm 15.8 SSW 5 10 1016.5 - 14.6 Recent precip. - - - - - -
29/08:30pm 16.0 S 7 15 1016.4 - 14.4 - - - - - - -
29/08:00pm 16.0 SSW 8 13 1016.2 - 14.4 - - - - - - -
29/07:30pm 15.9 S 6 13 1016.1 - 14.4 - - - - - - -
29/07:00pm 15.2 SSW 6 13 1016.2 - 14.4 - - - - - - -
29/06:30pm 13.6 SSW 7 18 1016.3 - 14.4 - - - - - - -
29/06:00pm 16.3 W 6 15 1016.0 - 13.0 Recent precip. - - - - - -
29/05:30pm 15.0 W 3 4 1016.5 - 13.0 - - - - - - -
29/05:00pm 14.2 S 7 15 1016.9 - 12.2 - - - - - - -
29/04:30pm 15.9 SSW 10 19 1016.7 - 11.2 - - - - - - -
29/04:00pm 15.9 SW 6 8 1016.8 - 11.2 - - - - - - -
29/03:30pm 14.4 SSW 10 17 1017.2 - 10.2 - - - - - - -
29/03:00pm 17.7 SSW 9 15 1016.9 - 9.2 Recent precip. - - - - - -
29/02:30pm 14.7 SSW 8 15 1017.2 - 9.2 - - - - - - -
29/02:00pm 16.2 WSW 3 6 1017.3 - 7.6 - - - - - - -
29/01:30pm 13.7 SE 3 5 1017.5 - 7.0 - - - - - - -
29/01:29pm 13.8 SE 3 5 1017.6 - 6.6 - - - - - - -
29/01:00pm 18.8 SE 6 12 1017.1 - 2.2 - - - - - - -
29/12:30pm 19.4 S 7 13 1017.3 - 2.2 - - - - - - -
29/12:00pm 18.0 SSE 6 11 1017.6 - 2.2 Recent precip. - - - - - -
29/11:30am 17.9 SSE 8 14 1017.7 - 2.0 - - - - - - -
29/11:00am 16.5 SSE 6 12 1017.6 - 2.0 - - - - - - -
29/10:30am 16.1 WNW 4 7 1017.6 - 2.0 - - - - - - -
29/10:00am 16.4 NW 3 6 1017.8 - 2.0 - - - - - - -
29/09:30am 15.4 NNW 4 5 1017.9 - 2.0 - - - - - - -
29/09:00am 14.1 N 4 5 1018.2 - 13.6 Recent precip. - - - - - -
29/08:30am 13.5 NNW 4 7 1017.7 - 13.4 - - - - - - -
29/08:00am 13.0 NW 2 3 1017.5 - 13.4 - - - - - - -
29/07:30am 12.9 NW 2 3 1017.6 - 13.4 - - - - - - -
29/07:00am 12.4 ESE 3 6 1017.7 - 13.2 - - - - - - -
29/06:30am 11.5 WNW 1 3 1017.3 - 10.2 - - - - - - -
29/06:00am 11.2 NNW 2 3 1017.2 - 10.2 - - - - - - -
29/05:30am 11.0 NW 2 3 1017.1 - 10.2 - - - - - - -
29/05:00am 11.1 NNW 1 3 1017.1 - 10.2 - - - - - - -
29/04:30am 11.4 N 4 6 1017.0 - 10.0 - - - - - - -
29/04:00am 11.1 N 4 6 1017.0 - 5.4 - - - - - - -
29/03:30am 11.0 WNW 1 3 1017.4 - 5.4 - - - - - - -
29/03:00am 10.8 NW 2 3 1017.5 - 5.4 - - - - - - -
29/02:30am 11.3 N 3 3 1017.8 - 5.4 - - - - - - -
29/02:00am - ENE 2 4 1018.0 - 5.4 - - - - - - -
29/01:30am 12.8 WNW 2 9 1018.3 - 0.8 - - - - - - -
29/01:00am 12.3 NNW 3 4 1018.6 - 0.8 - - - - - - -
29/12:30am 12.5 NNW 2 4 1018.7 - 0.8 - - - - - - -
29/12:00am 12.1 N 2 4 1018.9 - 0.8 Recent precip. - - - - - -
 
Date/Time
EDT
Temp

°C
Wind Pressure Rain
since 9am
mm
Weather Cloud Vis
km
Sea
Height
m
Swell
Dir
 
Speed
knots
Gust
knots
hPa Trend Height
m
Period
s
Dir
28/11:30pm 13.5 W 3 5 1019.2 - 0.8 - - - - - - -
28/11:00pm 14.7 S 2 5 1019.4 - 0.6 - - - - - - -
28/10:30pm 14.7 S 4 9 1019.7 - 0.6 - - - - - - -
28/10:00pm 14.9 S 3 5 1019.7 - 0.6 - - - - - - -
28/09:30pm 14.9 S 3 5 1019.6 - 0.6 - - - - - - -
28/09:00pm 15.1 S 3 7 1019.4 - 0.6 Recent precip. - - - - - -
28/08:30pm 14.8 SSW 7 15 1019.2 - 0.6 - - - - - - -
28/08:00pm 16.8 S 5 11 1019.1 - 0.2 - - - - - - -
28/07:30pm 17.4 S 6 9 1019.0 - 0.2 - - - - - - -
28/07:00pm 17.6 S 6 11 1018.7 - 0.2 - - - - - - -
28/06:30pm 18.4 S 8 14 1018.6 - 0.2 - - - - - - -
28/06:00pm 18.4 SE 5 9 1018.5 - 0.2 - - - - - - -
28/05:30pm 18.1 SSE 6 10 1018.4 - 0.2 - - - - - - -
28/05:00pm 18.1 ESE 7 13 1018.5 - 0.2 - - - - - - -
28/04:30pm 18.3 SE 8 14 1018.5 - 0.2 - - - - - - -
28/04:00pm 18.9 SSE 8 17 1018.4 - 0.2 - - - - - - -
28/03:30pm 19.1 SSE 10 21 1018.4 - 0.2 - - - - - - -
28/03:00pm 20.2 SSE 9 16 1018.4 - 0.2 - - - - - - -
28/02:30pm 20.0 SSE 7 14 1018.4 - 0.2 - - - - - - -
28/02:00pm 20.3 SSE 10 17 1018.3 - 0.2 - - - - - - -
28/01:30pm 20.0 SSE 8 13 1018.4 - 0.2 - - - - - - -
28/01:00pm 19.4 SSE 6 12 1018.5 - 0.2 - - - - - - -
28/12:30pm 18.7 S 9 16 1018.5 - 0.2 - - - - - - -
28/12:00pm 20.1 S 7 13 1018.5 - 0.2 - - - - - - -
28/11:30am 19.4 S 7 13 1018.5 - 0.2 - - - - - - -
28/11:00am 18.9 S 5 7 1018.4 - 0.2 - - - - - - -
28/10:30am 17.5 NW 2 4 1018.7 - 0.2 - - - - - - -
28/10:00am 16.1 NW 2 3 1018.6 - 0.0 - - - - - - -
28/09:30am 15.8 WNW 2 3 1018.4 - 0.0 - - - - - - -
28/09:00am 15.1 NW 2 3 1018.2 - 5.4 Recent precip. - - - - - -
28/08:30am 14.9 CALM 0 0 1018.1 - 5.4 - - - - - - -
28/08:00am 14.9 WSW 3 4 1018.0 - 4.4 - - - - - - -
28/07:30am 14.9 WNW 2 3 1017.5 - 3.8 - - - - - - -
28/07:00am 14.4 N 2 3 1017.3 - 3.8 - - - - - - -
28/06:30am 14.4 NNW 2 2 1017.0 - 3.6 - - - - - - -
28/06:00am 14.5 N 2 3 1016.7 - 2.2 Rain - - - - - -
28/05:30am 14.6 ENE 2 3 1016.5 - 1.2 - - - - - - -
28/05:00am 14.3 NW 2 3 1016.3 - 1.2 - - - - - - -
28/04:30am 14.2 NNW 2 3 1016.2 - 1.2 - - - - - - -
28/04:00am 14.6 CALM 0 0 1016.2 - 1.2 - - - - - - -
28/03:30am 14.5 CALM 0 0 1016.5 - 1.2 - - - - - - -
28/03:00am 14.5 CALM 0 0 1016.6 - 1.2 - - - - - - -
28/02:30am 14.5 CALM 0 2 1016.8 - 1.2 - - - - - - -
28/02:00am 14.4 CALM 0 0 1017.0 - 1.2 - - - - - - -
28/01:30am 14.4 CALM 0 0 1017.1 - 1.2 - - - - - - -
28/01:00am 14.4 CALM 0 0 1017.2 - 1.2 - - - - - - -
28/12:30am 14.4 CALM 0 0 1017.2 - 1.2 - - - - - - -
28/12:00am 14.5 CALM 0 1 1017.3 - 1.2 - - - - - - -
 
Date/Time
EDT
Temp

°C
Wind Pressure Rain
since 9am
mm
Weather Cloud Vis
km
Sea
Height
m
Swell
Dir
 
Speed
knots
Gust
knots
hPa Trend Height
m
Period
s
Dir
27/11:30pm 14.7 CALM 0 0 1017.3 - 1.2 - - - - - - -
27/11:00pm 14.8 SSW 2 3 1017.2 - 1.2 - - - - - - -
27/10:30pm 15.1 CALM 0 0 1017.2 - 1.0 - - - - - - -
27/10:00pm 15.0 CALM 0 1 1017.2 - 1.0 - - - - - - -
27/09:30pm 15.1 CALM 0 0 1017.0 - 1.0 - - - - - - -
27/09:00pm 15.0 CALM 0 0 1016.8 - 1.0 Rain - - - - - -
27/08:30pm 15.3 CALM 0 0 1016.6 - 0.6 - - - - - - -
27/08:00pm 15.4 E 2 3 1016.5 - 0.6 - - - - - - -
27/07:30pm 15.4 S 2 3 1016.1 - 0.6 - - - - - - -
27/07:00pm 15.3 S 2 3 1015.8 - 0.6 - - - - - - -
27/06:30pm 14.5 SSW 5 9 1015.7 - 0.4 - - - - - - -
27/06:00pm 14.8 S 5 9 1015.7 - 0.2 Recent precip. - - - - - -
27/05:30pm 15.9 S 5 8 1015.7 - 0.0 - - - - - - -
27/05:00pm 16.4 SE 5 9 1015.8 - 0.0 - - - - - - -
27/04:30pm 17.9 SSE 4 7 1015.6 - 0.0 - - - - - - -
27/04:00pm 18.1 SSE 5 10 1015.6 - 0.0 - - - - - - -
27/03:30pm 17.6 SSE 6 11 1015.7 - 0.0 - - - - - - -
27/03:00pm 17.8 SSE 5 10 1015.6 - 0.0 - - - - - - -
27/02:30pm 18.1 SSE 5 9 1015.5 - 0.0 - - - - - - -
27/02:00pm 18.6 SSE 3 6 1015.5 - 0.0 - - - - - - -
27/01:30pm 18.9 ESE 3 6 1015.6 - 0.0 - - - - - - -
27/01:00pm 19.2 ESE 4 8 1015.9 - 0.0 - - - - - - -
27/12:30pm 18.5 ESE 5 8 1016.2 - 0.0 - - - - - - -
27/12:00pm 18.2 ESE 4 7 1016.4 - 0.0 - - - - - - -
27/11:30am 18.1 ESE 4 8 1016.5 - 0.0 - - - - - - -
27/11:00am 18.1 ESE 4 7 1016.5 - 0.0 - - - - - - -
27/10:30am 19.1 ESE 5 8 1016.4 - 0.0 - - - - - - -
27/10:00am 19.0 SE 3 6 1016.6 - 0.0 - - - - - - -
27/09:30am 17.4 ESE 3 6 1016.4 - 0.0 - - - - - - -
27/09:00am 16.4 S 2 3 1016.6 - 0.0 - - - - - - -
27/08:30am 16.0 S 2 2 1016.4 - 0.0 - - - - - - -
27/08:00am 15.6 CALM 0 0 1016.3 - 0.0 - - - - - - -
27/07:30am 15.1 CALM 0 0 1016.0 - 0.0 - - - - - - -
27/07:00am 14.4 CALM 0 0 1015.9 - 0.0 - - - - - - -
27/06:30am 13.8 CALM 0 0 1016.0 - 0.0 - - - - - - -
27/06:00am 14.0 CALM 0 0 1015.8 - 0.0 - - - - - - -
27/05:30am 14.2 CALM 0 0 1015.6 - 0.0 - - - - - - -

Other Formats:

Comma delimited format used in spreadsheet applications
http://www.bom.gov.au/fwo/IDV60701/IDV60701.95918.axf

JavaScript Object Notation format (JSON) in row-major order
http://www.bom.gov.au/fwo/IDV60701/IDV60701.95918.json